Terminal Aerodrome Forecast
Issued by NWS Portland, OR

Home | Current Version | Previous Version | Text Only | Print | Product List | Glossary On
Versions: 1 2 3 4 5 6 7 8 9 10 11 12 13 14 15 16 17 18 19 20 21 22 23 24 25 26 27 28 29 30 31 32 33 34 35 36 37 38 39 40 41 42
000
FTUS46 KPQR 272324
TAFAST
TAF
KAST 272324Z 2800/2824 20012G22KT 6SM -SHRA BR SCT008 OVC035
     FM280200 20012KT 6SM -SHRA BR SCT008 BKN022 OVC035
     FM281500 22012KT 4SM RA BR SCT008 OVC018
     FM282300 32012G20KT 5SM RA BR SCT008 BKN018 OVC030=

USA.gov is the U.S. government's official web portal to all federal, state and local government web resources and services.